sensor_id;sensor_type;location;lat;lon;timestamp;pressure;altitude;pressure_sealevel;temperature;humidity
31911;BME280;18457;52.432;16.914;2023-02-28T00:00:28;102033.26;;;0.40;80.08
31911;BME280;18457;52.432;16.914;2023-02-28T00:03:21;102036.30;;;0.41;79.78
31911;BME280;18457;52.432;16.914;2023-02-28T00:05:57;102035.76;;;0.41;80.19
31911;BME280;18457;52.432;16.914;2023-02-28T00:08:31;102039.82;;;0.41;80.47
31911;BME280;18457;52.432;16.914;2023-02-28T00:11:02;102038.36;;;0.56;80.03
31911;BME280;18457;52.432;16.914;2023-02-28T00:13:37;102039.20;;;0.50;80.14
31911;BME280;18457;52.432;16.914;2023-02-28T00:16:12;102039.83;;;0.45;80.18
31911;BME280;18457;52.432;16.914;2023-02-28T00:18:45;102036.03;;;0.51;80.29
31911;BME280;18457;52.432;16.914;2023-02-28T00:21:19;102035.40;;;0.49;80.28
31911;BME280;18457;52.432;16.914;2023-02-28T00:23:51;102031.70;;;0.45;80.67
31911;BME280;18457;52.432;16.914;2023-02-28T00:26:24;102033.70;;;0.42;80.73
31911;BME280;18457;52.432;16.914;2023-02-28T00:28:57;102035.98;;;0.38;80.51
31911;BME280;18457;52.432;16.914;2023-02-28T00:31:28;102041.08;;;0.49;80.22
31911;BME280;18457;52.432;16.914;2023-02-28T00:34:01;102039.36;;;0.43;81.00
31911;BME280;18457;52.432;16.914;2023-02-28T00:36:35;102035.39;;;0.32;81.27
31911;BME280;18457;52.432;16.914;2023-02-28T00:39:08;102038.61;;;0.25;80.68
31911;BME280;18457;52.432;16.914;2023-02-28T00:41:40;102043.40;;;0.17;81.29
31911;BME280;18457;52.432;16.914;2023-02-28T00:44:13;102039.23;;;0.19;81.04
31911;BME280;18457;52.432;16.914;2023-02-28T00:46:46;102039.14;;;0.17;80.39
31911;BME280;18457;52.432;16.914;2023-02-28T00:49:19;102040.84;;;0.15;80.42
31911;BME280;18457;52.432;16.914;2023-02-28T00:51:51;102036.48;;;0.13;80.43
31911;BME280;18457;52.432;16.914;2023-02-28T00:54:24;102039.01;;;0.22;80.37
31911;BME280;18457;52.432;16.914;2023-02-28T00:56:56;102040.22;;;0.25;80.02
31911;BME280;18457;52.432;16.914;2023-02-28T00:59:27;102041.15;;;0.22;80.32
31911;BME280;18457;52.432;16.914;2023-02-28T01:02:00;102040.91;;;0.33;80.52
31911;BME280;18457;52.432;16.914;2023-02-28T01:04:31;102036.40;;;0.27;80.25
31911;BME280;18457;52.432;16.914;2023-02-28T01:07:04;102035.27;;;0.26;80.75
31911;BME280;18457;52.432;16.914;2023-02-28T01:09:37;102035.70;;;0.27;80.75
31911;BME280;18457;52.432;16.914;2023-02-28T01:12:10;102041.32;;;0.18;80.72
31911;BME280;18457;52.432;16.914;2023-02-28T01:14:42;102040.34;;;0.08;80.69
31911;BME280;18457;52.432;16.914;2023-02-28T01:17:14;102041.20;;;0.04;80.67
31911;BME280;18457;52.432;16.914;2023-02-28T01:19:47;102042.94;;;-0.02;81.13
31911;BME280;18457;52.432;16.914;2023-02-28T01:22:20;102035.73;;;-0.00;81.67
31911;BME280;18457;52.432;16.914;2023-02-28T01:24:52;102035.45;;;-0.06;81.43
31911;BME280;18457;52.432;16.914;2023-02-28T01:27:25;102034.44;;;-0.13;81.39
31911;BME280;18457;52.432;16.914;2023-02-28T01:29:58;102030.86;;;-0.13;81.80
31911;BME280;18457;52.432;16.914;2023-02-28T01:32:31;102028.23;;;-0.13;81.77
31911;BME280;18457;52.432;16.914;2023-02-28T01:35:04;102027.98;;;-0.14;81.97
31911;BME280;18457;52.432;16.914;2023-02-28T01:37:37;102030.44;;;-0.15;82.06
31911;BME280;18457;52.432;16.914;2023-02-28T01:40:13;102029.15;;;-0.16;81.99
31911;BME280;18457;52.432;16.914;2023-02-28T01:42:45;102031.17;;;-0.18;82.20
31911;BME280;18457;52.432;16.914;2023-02-28T01:45:22;102033.31;;;-0.18;81.73
31911;BME280;18457;52.432;16.914;2023-02-28T01:47:57;102032.72;;;-0.16;82.35
31911;BME280;18457;52.432;16.914;2023-02-28T01:50:33;102026.30;;;-0.16;82.60
31911;BME280;18457;52.432;16.914;2023-02-28T01:53:10;102029.11;;;-0.20;82.63
31911;BME280;18457;52.432;16.914;2023-02-28T01:55:47;102029.77;;;-0.21;82.37
31911;BME280;18457;52.432;16.914;2023-02-28T01:58:20;102031.27;;;-0.24;82.78
31911;BME280;18457;52.432;16.914;2023-02-28T02:00:51;102028.27;;;-0.19;83.23
31911;BME280;18457;52.432;16.914;2023-02-28T02:03:23;102023.80;;;-0.20;82.63
31911;BME280;18457;52.432;16.914;2023-02-28T02:05:54;102023.95;;;-0.29;82.75
31911;BME280;18457;52.432;16.914;2023-02-28T02:08:28;102019.57;;;-0.35;82.52
31911;BME280;18457;52.432;16.914;2023-02-28T02:11:01;102021.36;;;-0.38;82.81
31911;BME280;18457;52.432;16.914;2023-02-28T02:13:44;102021.25;;;-0.37;83.05
31911;BME280;18457;52.432;16.914;2023-02-28T02:16:36;102018.27;;;-0.40;82.62
31911;BME280;18457;52.432;16.914;2023-02-28T02:19:33;102023.61;;;-0.40;82.58
31911;BME280;18457;52.432;16.914;2023-02-28T02:22:35;102020.41;;;-0.28;82.24
31911;BME280;18457;52.432;16.914;2023-02-28T02:25:29;102013.04;;;-0.34;82.51
31911;BME280;18457;52.432;16.914;2023-02-28T02:28:39;102021.68;;;-0.39;82.40
31911;BME280;18457;52.432;16.914;2023-02-28T02:31:41;102019.95;;;-0.42;82.46
31911;BME280;18457;52.432;16.914;2023-02-28T02:34:39;102022.04;;;-0.43;82.88
31911;BME280;18457;52.432;16.914;2023-02-28T02:37:21;102022.52;;;-0.40;82.76
31911;BME280;18457;52.432;16.914;2023-02-28T02:40:06;102021.88;;;-0.42;82.97
31911;BME280;18457;52.432;16.914;2023-02-28T02:42:45;102023.21;;;-0.48;83.06
31911;BME280;18457;52.432;16.914;2023-02-28T02:45:25;102018.37;;;-0.53;83.29
31911;BME280;18457;52.432;16.914;2023-02-28T02:48:00;102022.67;;;-0.52;83.17
31911;BME280;18457;52.432;16.914;2023-02-28T02:50:38;102018.37;;;-0.53;82.89
31911;BME280;18457;52.432;16.914;2023-02-28T02:53:14;102014.30;;;-0.56;83.41
31911;BME280;18457;52.432;16.914;2023-02-28T02:55:53;102015.21;;;-0.56;83.39
31911;BME280;18457;52.432;16.914;2023-02-28T02:58:30;102011.67;;;-0.56;82.99
31911;BME280;18457;52.432;16.914;2023-02-28T03:01:06;102011.30;;;-0.60;83.29
31911;BME280;18457;52.432;16.914;2023-02-28T03:03:42;102014.36;;;-0.47;83.36
31911;BME280;18457;52.432;16.914;2023-02-28T03:06:16;102013.84;;;-0.36;82.83
31911;BME280;18457;52.432;16.914;2023-02-28T03:08:47;102010.53;;;-0.31;82.30
31911;BME280;18457;52.432;16.914;2023-02-28T03:11:21;102010.39;;;-0.34;82.44
31911;BME280;18457;52.432;16.914;2023-02-28T03:14:16;102010.61;;;-0.48;82.95
31911;BME280;18457;52.432;16.914;2023-02-28T03:17:06;102011.85;;;-0.56;83.08
31911;BME280;18457;52.432;16.914;2023-02-28T03:19:51;102015.29;;;-0.47;82.90
31911;BME280;18457;52.432;16.914;2023-02-28T03:22:47;102016.15;;;-0.40;82.48
31911;BME280;18457;52.432;16.914;2023-02-28T03:25:29;102022.17;;;-0.40;81.83
31911;BME280;18457;52.432;16.914;2023-02-28T03:28:08;102016.92;;;-0.38;82.03
31911;BME280;18457;52.432;16.914;2023-02-28T03:30:45;102014.52;;;-0.40;82.39
31911;BME280;18457;52.432;16.914;2023-02-28T03:33:21;102019.50;;;-0.36;82.42
31911;BME280;18457;52.432;16.914;2023-02-28T03:35:57;102016.77;;;-0.45;82.33
31911;BME280;18457;52.432;16.914;2023-02-28T03:38:33;102014.29;;;-0.49;82.45
31911;BME280;18457;52.432;16.914;2023-02-28T03:41:11;102016.18;;;-0.54;83.15
31911;BME280;18457;52.432;16.914;2023-02-28T03:43:49;102017.86;;;-0.45;82.82
31911;BME280;18457;52.432;16.914;2023-02-28T03:46:24;102020.20;;;-0.40;82.37
31911;BME280;18457;52.432;16.914;2023-02-28T03:49:03;102020.15;;;-0.38;82.47
31911;BME280;18457;52.432;16.914;2023-02-28T03:51:39;102021.60;;;-0.29;82.66
31911;BME280;18457;52.432;16.914;2023-02-28T03:54:15;102026.73;;;-0.26;81.69
31911;BME280;18457;52.432;16.914;2023-02-28T03:56:54;102027.64;;;-0.33;81.58
31911;BME280;18457;52.432;16.914;2023-02-28T03:59:30;102029.51;;;-0.39;81.80
31911;BME280;18457;52.432;16.914;2023-02-28T04:02:04;102028.10;;;-0.38;81.67
31911;BME280;18457;52.432;16.914;2023-02-28T04:04:36;102029.07;;;-0.52;81.74
31911;BME280;18457;52.432;16.914;2023-02-28T04:07:09;102031.29;;;-0.57;82.53
31911;BME280;18457;52.432;16.914;2023-02-28T04:09:42;102032.23;;;-0.60;82.47
31911;BME280;18457;52.432;16.914;2023-02-28T04:12:14;102035.38;;;-0.72;82.56
31911;BME280;18457;52.432;16.914;2023-02-28T04:14:46;102034.55;;;-0.71;82.75
31911;BME280;18457;52.432;16.914;2023-02-28T04:17:18;102029.48;;;-0.69;82.93
31911;BME280;18457;52.432;16.914;2023-02-28T04:19:50;102037.11;;;-0.80;82.94
31911;BME280;18457;52.432;16.914;2023-02-28T04:22:21;102040.73;;;-0.82;83.20
31911;BME280;18457;52.432;16.914;2023-02-28T04:24:56;102047.64;;;-0.83;83.26
31911;BME280;18457;52.432;16.914;2023-02-28T04:27:28;102045.15;;;-0.90;83.49
31911;BME280;18457;52.432;16.914;2023-02-28T04:30:02;102048.02;;;-1.01;83.89
31911;BME280;18457;52.432;16.914;2023-02-28T04:32:34;102043.89;;;-1.02;84.30
31911;BME280;18457;52.432;16.914;2023-02-28T04:35:07;102043.75;;;-1.04;84.31
31911;BME280;18457;52.432;16.914;2023-02-28T04:37:42;102044.45;;;-1.01;84.62
31911;BME280;18457;52.432;16.914;2023-02-28T04:40:14;102047.29;;;-0.98;84.60
31911;BME280;18457;52.432;16.914;2023-02-28T04:42:46;102054.19;;;-0.83;84.73
31911;BME280;18457;52.432;16.914;2023-02-28T04:45:17;102053.41;;;-0.81;84.63
31911;BME280;18457;52.432;16.914;2023-02-28T04:47:49;102058.36;;;-0.89;84.51
31911;BME280;18457;52.432;16.914;2023-02-28T04:50:21;102062.27;;;-0.92;84.04
31911;BME280;18457;52.432;16.914;2023-02-28T04:52:53;102060.77;;;-0.94;84.15
31911;BME280;18457;52.432;16.914;2023-02-28T04:55:25;102063.17;;;-0.96;84.42
31911;BME280;18457;52.432;16.914;2023-02-28T04:57:56;102061.38;;;-0.96;84.64
31911;BME280;18457;52.432;16.914;2023-02-28T05:00:28;102064.23;;;-0.89;84.84
31911;BME280;18457;52.432;16.914;2023-02-28T05:03:00;102063.63;;;-0.78;84.39
31911;BME280;18457;52.432;16.914;2023-02-28T05:05:32;102061.33;;;-0.82;83.96
31911;BME280;18457;52.432;16.914;2023-02-28T05:08:05;102062.03;;;-0.86;84.33
31911;BME280;18457;52.432;16.914;2023-02-28T05:10:37;102058.20;;;-0.88;84.38
31911;BME280;18457;52.432;16.914;2023-02-28T05:13:12;102063.11;;;-0.86;84.67
31911;BME280;18457;52.432;16.914;2023-02-28T05:15:44;102065.52;;;-0.76;84.29
31911;BME280;18457;52.432;16.914;2023-02-28T05:18:16;102068.72;;;-0.72;83.69
31911;BME280;18457;52.432;16.914;2023-02-28T05:20:48;102073.54;;;-0.64;82.98
31911;BME280;18457;52.432;16.914;2023-02-28T05:23:21;102073.58;;;-0.60;82.31
31911;BME280;18457;52.432;16.914;2023-02-28T05:25:55;102074.77;;;-0.57;82.60
31911;BME280;18457;52.432;16.914;2023-02-28T05:28:26;102078.58;;;-0.63;82.83
31911;BME280;18457;52.432;16.914;2023-02-28T05:30:59;102075.40;;;-0.62;82.89
31911;BME280;18457;52.432;16.914;2023-02-28T05:33:31;102078.75;;;-0.67;82.63
31911;BME280;18457;52.432;16.914;2023-02-28T05:36:03;102082.23;;;-0.79;82.90
31911;BME280;18457;52.432;16.914;2023-02-28T05:38:34;102083.83;;;-0.90;83.32
31911;BME280;18457;52.432;16.914;2023-02-28T05:41:09;102085.73;;;-1.02;83.76
31911;BME280;18457;52.432;16.914;2023-02-28T05:43:41;102086.22;;;-1.13;84.02
31911;BME280;18457;52.432;16.914;2023-02-28T05:46:14;102091.77;;;-1.15;84.47
31911;BME280;18457;52.432;16.914;2023-02-28T05:48:47;102093.27;;;-1.18;84.41
31911;BME280;18457;52.432;16.914;2023-02-28T05:51:19;102090.68;;;-1.27;84.74
31911;BME280;18457;52.432;16.914;2023-02-28T05:53:51;102088.98;;;-1.29;84.78
31911;BME280;18457;52.432;16.914;2023-02-28T05:56:23;102092.73;;;-1.28;84.84
31911;BME280;18457;52.432;16.914;2023-02-28T05:58:55;102095.23;;;-1.24;84.99
31911;BME280;18457;52.432;16.914;2023-02-28T06:01:34;102097.95;;;-1.30;85.15
31911;BME280;18457;52.432;16.914;2023-02-28T06:04:09;102094.64;;;-1.43;85.84
31911;BME280;18457;52.432;16.914;2023-02-28T06:06:58;102098.23;;;-1.42;86.15
31911;BME280;18457;52.432;16.914;2023-02-28T06:09:32;102098.45;;;-1.38;86.37
31911;BME280;18457;52.432;16.914;2023-02-28T06:12:06;102104.88;;;-1.26;86.02
31911;BME280;18457;52.432;16.914;2023-02-28T06:14:40;102104.67;;;-1.13;85.61
31911;BME280;18457;52.432;16.914;2023-02-28T06:17:12;102104.16;;;-1.02;85.07
31911;BME280;18457;52.432;16.914;2023-02-28T06:19:43;102109.98;;;-1.06;85.10
31911;BME280;18457;52.432;16.914;2023-02-28T06:22:15;102114.66;;;-1.05;84.92
31911;BME280;18457;52.432;16.914;2023-02-28T06:24:47;102115.30;;;-1.06;84.94
31911;BME280;18457;52.432;16.914;2023-02-28T06:27:19;102113.02;;;-1.09;85.04
31911;BME280;18457;52.432;16.914;2023-02-28T06:29:54;102113.10;;;-1.11;85.52
31911;BME280;18457;52.432;16.914;2023-02-28T06:32:26;102119.61;;;-1.05;85.16
31911;BME280;18457;52.432;16.914;2023-02-28T06:34:58;102121.20;;;-1.13;85.15
31911;BME280;18457;52.432;16.914;2023-02-28T06:37:31;102121.42;;;-1.11;85.37
31911;BME280;18457;52.432;16.914;2023-02-28T06:40:04;102122.58;;;-1.02;85.77
31911;BME280;18457;52.432;16.914;2023-02-28T06:42:37;102117.02;;;-1.00;84.90
31911;BME280;18457;52.432;16.914;2023-02-28T06:45:10;102120.39;;;-1.00;85.08
31911;BME280;18457;52.432;16.914;2023-02-28T06:47:42;102118.27;;;-1.00;84.89
31911;BME280;18457;52.432;16.914;2023-02-28T06:50:14;102122.21;;;-1.03;85.07
31911;BME280;18457;52.432;16.914;2023-02-28T06:52:48;102122.14;;;-0.97;85.35
31911;BME280;18457;52.432;16.914;2023-02-28T06:55:24;102122.18;;;-0.96;85.15
31911;BME280;18457;52.432;16.914;2023-02-28T06:57:57;102124.20;;;-0.98;85.19
31911;BME280;18457;52.432;16.914;2023-02-28T07:00:28;102120.20;;;-0.94;85.57
31911;BME280;18457;52.432;16.914;2023-02-28T07:03:00;102119.23;;;-0.92;85.31
31911;BME280;18457;52.432;16.914;2023-02-28T07:05:32;102117.98;;;-0.81;84.90
31911;BME280;18457;52.432;16.914;2023-02-28T07:08:06;102117.92;;;-0.78;84.73
31911;BME280;18457;52.432;16.914;2023-02-28T07:10:39;102116.86;;;-0.57;84.29
31911;BME280;18457;52.432;16.914;2023-02-28T07:13:11;102114.23;;;-0.45;84.07
31911;BME280;18457;52.432;16.914;2023-02-28T07:15:44;102118.95;;;-0.43;84.17
31911;BME280;18457;52.432;16.914;2023-02-28T07:18:16;102118.92;;;-0.47;84.02
31911;BME280;18457;52.432;16.914;2023-02-28T07:20:48;102121.14;;;-0.34;83.82
31911;BME280;18457;52.432;16.914;2023-02-28T07:23:20;102118.65;;;-0.31;84.01
31911;BME280;18457;52.432;16.914;2023-02-28T07:25:52;102119.80;;;-0.25;83.78
31911;BME280;18457;52.432;16.914;2023-02-28T07:28:24;102121.91;;;-0.22;84.15
31911;BME280;18457;52.432;16.914;2023-02-28T07:30:55;102124.18;;;-0.15;83.69
31911;BME280;18457;52.432;16.914;2023-02-28T07:33:27;102127.81;;;-0.14;83.17
31911;BME280;18457;52.432;16.914;2023-02-28T07:36:03;102131.63;;;-0.16;82.85
31911;BME280;18457;52.432;16.914;2023-02-28T07:38:36;102130.31;;;-0.10;82.98
31911;BME280;18457;52.432;16.914;2023-02-28T07:41:08;102133.19;;;-0.09;83.36
31911;BME280;18457;52.432;16.914;2023-02-28T07:43:41;102134.46;;;-0.01;83.10
31911;BME280;18457;52.432;16.914;2023-02-28T07:46:14;102136.52;;;0.13;82.42
31911;BME280;18457;52.432;16.914;2023-02-28T07:48:47;102137.34;;;0.27;81.63
31911;BME280;18457;52.432;16.914;2023-02-28T07:51:19;102136.64;;;0.35;81.80
31911;BME280;18457;52.432;16.914;2023-02-28T07:53:51;102134.52;;;0.43;81.75
31911;BME280;18457;52.432;16.914;2023-02-28T07:56:23;102138.12;;;0.29;81.75
31911;BME280;18457;52.432;16.914;2023-02-28T07:58:55;102142.34;;;0.24;81.77
31911;BME280;18457;52.432;16.914;2023-02-28T08:01:27;102144.17;;;0.33;81.94
31911;BME280;18457;52.432;16.914;2023-02-28T08:03:59;102141.72;;;0.33;81.72
31911;BME280;18457;52.432;16.914;2023-02-28T08:06:31;102142.25;;;0.37;81.70
31911;BME280;18457;52.432;16.914;2023-02-28T08:09:03;102145.98;;;0.53;81.72
31911;BME280;18457;52.432;16.914;2023-02-28T08:11:36;102145.65;;;0.54;81.93
31911;BME280;18457;52.432;16.914;2023-02-28T08:14:07;102147.59;;;0.61;81.87
31911;BME280;18457;52.432;16.914;2023-02-28T08:16:40;102143.16;;;0.69;81.85
31911;BME280;18457;52.432;16.914;2023-02-28T08:19:13;102136.88;;;0.76;81.09
31911;BME280;18457;52.432;16.914;2023-02-28T08:21:45;102136.42;;;0.78;80.74
31911;BME280;18457;52.432;16.914;2023-02-28T08:24:17;102134.50;;;0.83;80.44
31911;BME280;18457;52.432;16.914;2023-02-28T08:26:49;102137.92;;;0.80;80.22
31911;BME280;18457;52.432;16.914;2023-02-28T08:29:21;102138.69;;;0.85;79.97
31911;BME280;18457;52.432;16.914;2023-02-28T08:31:53;102142.79;;;0.94;80.13
31911;BME280;18457;52.432;16.914;2023-02-28T08:34:26;102143.62;;;1.05;80.03
31911;BME280;18457;52.432;16.914;2023-02-28T08:36:57;102140.61;;;1.14;79.84
31911;BME280;18457;52.432;16.914;2023-02-28T08:39:29;102140.34;;;1.12;79.63
31911;BME280;18457;52.432;16.914;2023-02-28T08:42:01;102140.48;;;1.15;79.12
31911;BME280;18457;52.432;16.914;2023-02-28T08:44:38;102141.32;;;1.10;79.05
31911;BME280;18457;52.432;16.914;2023-02-28T08:47:11;102141.63;;;1.17;78.78
31911;BME280;18457;52.432;16.914;2023-02-28T08:49:43;102140.68;;;1.28;79.34
31911;BME280;18457;52.432;16.914;2023-02-28T08:52:16;102139.93;;;1.44;78.73
31911;BME280;18457;52.432;16.914;2023-02-28T08:54:48;102141.69;;;1.57;77.68
31911;BME280;18457;52.432;16.914;2023-02-28T08:57:20;102143.27;;;1.66;77.38
31911;BME280;18457;52.432;16.914;2023-02-28T08:59:52;102145.59;;;1.66;77.76
31911;BME280;18457;52.432;16.914;2023-02-28T09:02:24;102142.61;;;1.58;77.10
31911;BME280;18457;52.432;16.914;2023-02-28T09:04:56;102139.93;;;1.57;76.86
31911;BME280;18457;52.432;16.914;2023-02-28T09:07:28;102141.16;;;1.57;76.94
31911;BME280;18457;52.432;16.914;2023-02-28T09:10:00;102138.20;;;1.59;76.73
31911;BME280;18457;52.432;16.914;2023-02-28T09:12:34;102130.54;;;1.68;76.55
31911;BME280;18457;52.432;16.914;2023-02-28T09:15:08;102123.63;;;1.87;76.17
31911;BME280;18457;52.432;16.914;2023-02-28T09:17:41;102125.63;;;1.83;75.50
31911;BME280;18457;52.432;16.914;2023-02-28T09:20:16;102124.87;;;1.77;74.97
31911;BME280;18457;52.432;16.914;2023-02-28T09:22:48;102123.80;;;1.86;75.10
31911;BME280;18457;52.432;16.914;2023-02-28T09:25:20;102122.06;;;1.97;74.93
31911;BME280;18457;52.432;16.914;2023-02-28T09:27:52;102126.46;;;2.04;73.87
31911;BME280;18457;52.432;16.914;2023-02-28T09:30:24;102128.30;;;2.20;73.99
31911;BME280;18457;52.432;16.914;2023-02-28T09:32:56;102128.96;;;2.28;72.68
31911;BME280;18457;52.432;16.914;2023-02-28T09:35:28;102130.30;;;2.30;70.68
31911;BME280;18457;52.432;16.914;2023-02-28T09:38:01;102129.56;;;2.30;69.95
31911;BME280;18457;52.432;16.914;2023-02-28T09:40:36;102129.84;;;2.32;69.37
31911;BME280;18457;52.432;16.914;2023-02-28T09:43:12;102137.13;;;2.46;69.32
31911;BME280;18457;52.432;16.914;2023-02-28T09:45:50;102140.48;;;2.65;69.18
31911;BME280;18457;52.432;16.914;2023-02-28T09:48:27;102144.45;;;2.81;68.48
31911;BME280;18457;52.432;16.914;2023-02-28T09:51:04;102149.11;;;2.92;68.20
31911;BME280;18457;52.432;16.914;2023-02-28T09:53:39;102149.42;;;3.05;67.73
31911;BME280;18457;52.432;16.914;2023-02-28T09:56:20;102147.88;;;3.18;67.78
31911;BME280;18457;52.432;16.914;2023-02-28T09:59:00;102149.59;;;3.21;65.12
31911;BME280;18457;52.432;16.914;2023-02-28T10:01:38;102154.42;;;3.11;63.50
31911;BME280;18457;52.432;16.914;2023-02-28T10:04:16;;;;3.18;
31911;BME280;18457;52.432;16.914;2023-02-28T10:06:55;102160.94;;;3.34;63.14
31911;BME280;18457;52.432;16.914;2023-02-28T10:09:31;102159.21;;;3.52;63.60
31911;BME280;18457;52.432;16.914;2023-02-28T10:12:06;102157.17;;;3.77;63.71
31911;BME280;18457;52.432;16.914;2023-02-28T10:14:46;102156.80;;;3.88;63.38
31911;BME280;18457;52.432;16.914;2023-02-28T10:17:22;102155.58;;;3.89;63.87
31911;BME280;18457;52.432;16.914;2023-02-28T10:20:00;102158.40;;;3.77;63.48
31911;BME280;18457;52.432;16.914;2023-02-28T10:22:44;102154.70;;;3.90;61.45
31911;BME280;18457;52.432;16.914;2023-02-28T10:25:22;102148.45;;;3.79;60.33
31911;BME280;18457;52.432;16.914;2023-02-28T10:28:00;102147.86;;;3.88;61.03
31911;BME280;18457;52.432;16.914;2023-02-28T10:30:36;102145.55;;;4.12;61.19
31911;BME280;18457;52.432;16.914;2023-02-28T10:33:17;102149.02;;;4.44;61.30
31911;BME280;18457;52.432;16.914;2023-02-28T10:35:51;102137.70;;;4.56;59.78
31911;BME280;18457;52.432;16.914;2023-02-28T10:38:25;102139.27;;;4.86;60.41
31911;BME280;18457;52.432;16.914;2023-02-28T10:41:08;102142.27;;;5.11;60.43
31911;BME280;18457;52.432;16.914;2023-02-28T10:43:42;102136.79;;;5.27;58.22
31911;BME280;18457;52.432;16.914;2023-02-28T10:46:18;102132.05;;;5.17;57.73
31911;BME280;18457;52.432;16.914;2023-02-28T10:49:05;102131.45;;;5.15;57.03
31911;BME280;18457;52.432;16.914;2023-02-28T10:51:40;102126.80;;;5.15;57.09
31911;BME280;18457;52.432;16.914;2023-02-28T10:54:19;102127.02;;;4.89;56.49
31911;BME280;18457;52.432;16.914;2023-02-28T10:57:16;102117.59;;;4.99;56.07
31911;BME280;18457;52.432;16.914;2023-02-28T10:59:52;102113.77;;;5.32;57.13
31911;BME280;18457;52.432;16.914;2023-02-28T11:02:34;102115.95;;;5.76;56.98
31911;BME280;18457;52.432;16.914;2023-02-28T11:05:25;102112.17;;;5.98;56.53
31911;BME280;18457;52.432;16.914;2023-02-28T11:08:02;102109.59;;;6.20;56.58
31911;BME280;18457;52.432;16.914;2023-02-28T11:10:37;102107.50;;;6.31;54.92
31911;BME280;18457;52.432;16.914;2023-02-28T11:13:19;102110.27;;;6.37;54.89
31911;BME280;18457;52.432;16.914;2023-02-28T11:15:56;102107.35;;;6.50;54.62
31911;BME280;18457;52.432;16.914;2023-02-28T11:18:32;102105.63;;;6.63;53.80
31911;BME280;18457;52.432;16.914;2023-02-28T11:21:09;102105.56;;;6.42;52.81
31911;BME280;18457;52.432;16.914;2023-02-28T11:23:42;102108.14;;;6.19;53.35
31911;BME280;18457;52.432;16.914;2023-02-28T11:26:14;102104.00;;;6.28;52.58
31911;BME280;18457;52.432;16.914;2023-02-28T11:28:48;102110.27;;;6.45;52.89
31911;BME280;18457;52.432;16.914;2023-02-28T11:31:34;102105.23;;;6.35;52.55
31911;BME280;18457;52.432;16.914;2023-02-28T11:34:25;102102.77;;;6.38;52.66
31911;BME280;18457;52.432;16.914;2023-02-28T11:36:59;102096.63;;;6.62;52.19
31911;BME280;18457;52.432;16.914;2023-02-28T11:39:35;102092.73;;;6.29;51.05
31911;BME280;18457;52.432;16.914;2023-02-28T11:42:20;102091.41;;;6.62;51.64
31911;BME280;18457;52.432;16.914;2023-02-28T11:45:02;102087.56;;;6.96;51.42
31911;BME280;18457;52.432;16.914;2023-02-28T11:47:42;102083.62;;;7.18;52.37
31911;BME280;18457;52.432;16.914;2023-02-28T11:50:26;102079.65;;;7.39;52.09
31911;BME280;18457;52.432;16.914;2023-02-28T11:53:10;102080.63;;;7.55;51.41
31911;BME280;18457;52.432;16.914;2023-02-28T11:55:51;102078.77;;;7.62;50.20
31911;BME280;18457;52.432;16.914;2023-02-28T11:58:33;102083.02;;;7.70;51.47
31911;BME280;18457;52.432;16.914;2023-02-28T12:01:20;102078.00;;;7.71;50.73
31911;BME280;18457;52.432;16.914;2023-02-28T12:04:03;102071.53;;;7.60;49.86
31911;BME280;18457;52.432;16.914;2023-02-28T12:06:47;102067.30;;;7.55;49.84
31911;BME280;18457;52.432;16.914;2023-02-28T12:09:38;102064.16;;;7.60;49.38
31911;BME280;18457;52.432;16.914;2023-02-28T12:12:23;102069.67;;;7.67;49.15
31911;BME280;18457;52.432;16.914;2023-02-28T12:15:13;102070.61;;;7.71;48.94
31911;BME280;18457;52.432;16.914;2023-02-28T12:17:56;102068.02;;;7.90;48.18
31911;BME280;18457;52.432;16.914;2023-02-28T12:20:36;102066.55;;;8.03;48.37
31911;BME280;18457;52.432;16.914;2023-02-28T12:26:21;102052.55;;;8.06;46.80
31911;BME280;18457;52.432;16.914;2023-02-28T12:29:04;102056.16;;;8.07;47.55
31911;BME280;18457;52.432;16.914;2023-02-28T12:31:44;102053.98;;;8.05;47.68
31911;BME280;18457;52.432;16.914;2023-02-28T12:34:21;102046.76;;;8.17;45.89
31911;BME280;18457;52.432;16.914;2023-02-28T12:36:57;102041.27;;;8.09;44.83
31911;BME280;18457;52.432;16.914;2023-02-28T12:39:33;102043.04;;;7.93;45.09
31911;BME280;18457;52.432;16.914;2023-02-28T12:42:25;102041.58;;;8.05;46.12
31911;BME280;18457;52.432;16.914;2023-02-28T12:45:00;102038.39;;;8.10;45.96
31911;BME280;18457;52.432;16.914;2023-02-28T12:47:33;102034.12;;;8.14;45.54
31911;BME280;18457;52.432;16.914;2023-02-28T12:50:09;102033.09;;;8.19;44.27
31911;BME280;18457;52.432;16.914;2023-02-28T12:52:49;102029.82;;;7.87;43.85
31911;BME280;18457;52.432;16.914;2023-02-28T12:55:30;102030.44;;;8.07;45.56
31911;BME280;18457;52.432;16.914;2023-02-28T12:58:10;102026.48;;;8.22;45.84
31911;BME280;18457;52.432;16.914;2023-02-28T13:01:05;102028.20;;;8.16;45.25
31911;BME280;18457;52.432;16.914;2023-02-28T13:04:11;102023.49;;;8.14;45.37
31911;BME280;18457;52.432;16.914;2023-02-28T13:07:10;102026.03;;;8.00;45.71
31911;BME280;18457;52.432;16.914;2023-02-28T13:09:53;102024.53;;;7.56;44.33
31911;BME280;18457;52.432;16.914;2023-02-28T13:12:26;102017.91;;;7.71;46.25
31911;BME280;18457;52.432;16.914;2023-02-28T13:15:06;102020.78;;;7.70;45.36
31911;BME280;18457;52.432;16.914;2023-02-28T13:17:43;102017.27;;;7.51;44.91
31911;BME280;18457;52.432;16.914;2023-02-28T13:20:21;102015.70;;;7.30;44.28
31911;BME280;18457;52.432;16.914;2023-02-28T13:22:56;102015.31;;;7.52;45.24
31911;BME280;18457;52.432;16.914;2023-02-28T13:25:51;102017.30;;;7.79;44.42
31911;BME280;18457;52.432;16.914;2023-02-28T13:38:31;101996.81;;;7.81;46.45
31911;BME280;18457;52.432;16.914;2023-02-28T13:41:45;101991.73;;;7.93;46.58
31911;BME280;18457;52.432;16.914;2023-02-28T13:44:20;101986.31;;;8.06;47.91